Time;durP1;ratioP1;P1;durP2;ratioP2;P2;SDS_P1;SDS_P2;PMS_P1;PMS_P2;Temp;Humidity;BMP_temperature;BMP_pressure;BME280_temperature;BME280_humidity;BME280_pressure;Samples;Min_cycle;Max_cycle;Signal;HPM_P1;HPM_P2
2023/06/12 00:51:52;;;;;;;10.45;7.80;;;19.10;99.90;;;;;;5348486;23;20055;-92
2023/06/12 00:54:19;;;;;;;16.13;9.15;;;19.10;99.90;;;;;;4935079;29;20024;-92
2023/06/12 00:56:45;;;;;;;12.50;8.77;;;19.10;99.90;;;;;;4943788;29;20019;-93
2023/06/12 00:59:16;;;;;;;13.70;9.27;;;19.10;99.90;;;;;;4932817;29;20118;-94
2023/06/12 01:01:43;;;;;;;16.10;9.52;;;19.10;99.90;;;;;;4927045;29;20035;-93
2023/06/12 01:04:10;;;;;;;14.15;8.77;;;19.00;99.90;;;;;;4903649;29;20060;-93
2023/06/12 01:07:06;;;;;;;14.95;9.38;;;19.10;99.90;;;;;;4905291;29;20056;-93
2023/06/12 01:10:02;;;;;;;10.63;8.77;;;19.10;99.90;;;;;;4887467;29;20425;-95
2023/06/12 01:12:29;;;;;;;15.07;10.00;;;19.10;99.90;;;;;;4902573;29;20036;-93
2023/06/12 01:14:56;;;;;;;16.70;9.70;;;19.10;99.90;;;;;;4899526;29;20036;-94
2023/06/12 01:17:27;;;;;;;16.38;10.30;;;19.10;99.90;;;;;;4886160;29;20060;-92
2023/06/12 01:19:57;;;;;;;14.15;9.77;;;19.00;99.90;;;;;;4899431;29;20044;-93
2023/06/12 01:22:28;;;;;;;19.98;11.02;;;19.00;99.90;;;;;;4883438;29;20029;-93
2023/06/12 01:25:19;;;;;;;14.13;10.10;;;19.00;99.90;;;;;;4883702;29;20536;-92
2023/06/12 01:28:37;;;;;;;17.67;10.73;;;18.90;99.90;;;;;;4899288;29;20079;-93
2023/06/12 01:31:14;;;;;;;20.25;10.82;;;18.90;99.90;;;;;;4846699;29;20033;-93
2023/06/12 01:33:51;;;;;;;17.63;10.48;;;18.90;99.90;;;;;;4882896;29;20040;-93
2023/06/12 01:36:23;;;;;;;17.67;10.18;;;18.90;99.90;;;;;;4921013;29;20035;-93
2023/06/12 01:38:59;;;;;;;17.40;10.65;;;18.90;99.90;;;;;;4921223;29;20094;-92
2023/06/12 01:41:28;;;;;;;16.63;10.10;;;18.80;99.90;;;;;;4921451;29;20034;-94
2023/06/12 01:43:56;;;;;;;19.92;10.40;;;18.80;99.90;;;;;;4921095;29;20063;-92
2023/06/12 01:46:22;;;;;;;18.40;10.48;;;18.80;99.90;;;;;;4921382;29;20031;-92
2023/06/12 01:48:49;;;;;;;18.40;11.00;;;18.80;99.90;;;;;;4921011;29;20035;-92
2023/06/12 01:51:18;;;;;;;17.38;10.63;;;18.80;99.90;;;;;;4919648;29;20567;-94
2023/06/12 01:53:44;;;;;;;16.40;11.00;;;18.80;99.90;;;;;;4903096;29;20028;-92
2023/06/12 01:56:14;;;;;;;16.50;9.70;;;18.80;99.90;;;;;;4902918;29;20025;-93
2023/06/12 01:58:41;;;;;;;19.52;9.85;;;18.90;99.90;;;;;;4902776;29;20028;-92
2023/06/12 02:01:15;;;;;;;15.98;9.27;;;18.80;99.90;;;;;;4903209;29;20039;-91
2023/06/12 02:03:45;;;;;;;15.95;9.85;;;18.80;99.90;;;;;;4902988;29;20047;-92
2023/06/12 02:06:16;;;;;;;18.75;10.43;;;18.80;99.90;;;;;;4902548;29;20025;-93
2023/06/12 02:08:44;;;;;;;18.33;9.73;;;18.80;99.90;;;;;;4917847;29;20043;-93
2023/06/12 02:11:14;;;;;;;13.93;9.60;;;18.80;99.90;;;;;;4922960;29;20028;-93
2023/06/12 02:13:40;;;;;;;17.80;10.18;;;18.80;99.90;;;;;;4923048;29;20036;-93
2023/06/12 02:16:10;;;;;;;19.35;10.27;;;18.80;99.90;;;;;;4921954;29;20052;-93
2023/06/12 02:18:37;;;;;;;18.38;9.27;;;18.80;99.90;;;;;;4918814;29;20035;-94
2023/06/12 02:21:06;;;;;;;18.20;9.55;;;18.80;99.90;;;;;;4919084;29;20477;-93
2023/06/12 02:23:33;;;;;;;14.50;9.65;;;18.70;99.90;;;;;;4917835;29;20550;-95
2023/06/12 02:26:01;;;;;;;14.20;9.20;;;18.80;99.90;;;;;;4917957;29;20034;-93
2023/06/12 02:28:31;;;;;;;15.82;9.45;;;18.80;99.90;;;;;;4917372;29;20048;-93
2023/06/12 02:30:58;;;;;;;16.00;8.93;;;18.80;99.90;;;;;;4918347;29;20036;-93
2023/06/12 02:33:31;;;;;;;14.35;8.95;;;18.70;99.90;;;;;;4919125;29;20501;-92
2023/06/12 02:35:58;;;;;;;14.32;9.95;;;18.80;99.90;;;;;;4917752;29;20028;-94
2023/06/12 02:38:26;;;;;;;14.48;9.55;;;18.80;99.90;;;;;;4918106;29;20024;-94
2023/06/12 02:40:53;;;;;;;16.75;9.80;;;18.80;99.90;;;;;;4917756;29;20484;-93
2023/06/12 02:43:20;;;;;;;16.67;9.32;;;18.80;99.90;;;;;;4917538;29;20029;-94
2023/06/12 02:45:50;;;;;;;13.68;8.45;;;18.80;99.90;;;;;;4917762;29;20033;-92
2023/06/12 02:48:16;;;;;;;10.95;8.23;;;18.80;99.90;;;;;;4917541;29;20043;-93
2023/06/12 02:50:43;;;;;;;13.30;8.23;;;18.70;99.90;;;;;;4918298;29;20091;-92
2023/06/12 02:53:11;;;;;;;9.88;7.72;;;18.70;99.90;;;;;;4920431;29;20127;-93
2023/06/12 02:55:44;;;;;;;12.68;8.30;;;18.60;99.90;;;;;;4920475;29;20036;-92
2023/06/12 02:58:12;;;;;;;11.88;8.25;;;18.60;99.90;;;;;;4921376;29;20120;-93
2023/06/12 03:00:38;;;;;;;17.17;8.63;;;18.60;99.90;;;;;;4920748;29;20122;-93
2023/06/12 03:03:06;;;;;;;11.82;8.55;;;18.60;99.90;;;;;;4921350;29;20392;-94
2023/06/12 03:05:34;;;;;;;14.30;9.05;;;18.50;99.90;;;;;;4920705;29;20028;-95
2023/06/12 03:08:02;;;;;;;14.80;9.10;;;18.50;99.90;;;;;;4920916;29;20036;-92
2023/06/12 03:27:13;;;;;;;;;;;;;;;;;;;;;
2023/06/12 03:30:39;;;;;;;11.52;8.20;;;18.60;99.90;;;;;;4951347;23;20094;-94
2023/06/12 03:53:49;;;;;;;12.85;8.18;;;18.70;99.90;;;;;;5006835;23;20547;-92
2023/06/12 03:56:15;;;;;;;12.93;8.95;;;18.60;99.90;;;;;;4926663;29;20035;-93
2023/06/12 06:39:19;;;;;;;22.80;21.20;;;29.90;99.90;;;;;;4933714;29;20062;-93
2023/06/12 06:42:56;;;;;;;;;;;;;;;;;;;;;
2023/06/12 06:47:17;;;;;;;21.23;19.88;;;27.60;99.90;;;;;;4789246;30;20189;-93
2023/06/12 07:30:12;;;;;;;21.58;20.23;;;26.70;99.90;;;;;;4936549;29;20068;-77
2023/06/12 07:32:39;;;;;;;21.77;20.17;;;27.50;99.90;;;;;;4915718;29;20060;-78
2023/06/12 07:35:08;;;;;;;22.67;20.85;;;28.70;99.90;;;;;;4915502;29;20032;-78
2023/06/12 07:37:39;;;;;;;23.38;21.88;;;29.50;99.90;;;;;;4916904;29;20072;-77
2023/06/12 07:40:08;;;;;;;23.38;21.90;;;30.00;99.90;;;;;;4915550;29;20036;-78
2023/06/12 07:42:35;;;;;;;22.77;21.00;;;30.40;99.90;;;;;;4915576;29;20512;-78
2023/06/12 15:02:07;;;;;;;8.82;7.88;;;23.30;99.90;;;;;;6053927;23;20933;31
2023/06/12 15:04:33;;;;;;;8.40;7.75;;;23.40;99.90;;;;;;4915823;29;20052;-93
2023/06/12 15:07:00;;;;;;;8.27;7.55;;;23.30;99.90;;;;;;4919002;29;20110;-93
2023/06/12 15:09:26;;;;;;;8.90;8.10;;;23.30;99.90;;;;;;4886424;29;20032;-92
2023/06/12 15:11:52;;;;;;;9.13;8.43;;;23.20;99.90;;;;;;4917581;29;20222;-93
2023/06/12 15:14:19;;;;;;;8.65;8.00;;;23.10;99.90;;;;;;4917549;29;20035;-92
2023/06/12 15:16:45;;;;;;;9.02;8.20;;;23.00;99.90;;;;;;4904488;29;20027;-94
2023/06/12 15:19:15;;;;;;;8.75;8.05;;;22.80;99.90;;;;;;4894268;29;20036;-92
2023/06/12 15:21:54;;;;;;;8.57;7.85;;;22.80;99.90;;;;;;4869106;29;20069;-91
2023/06/12 15:24:37;;;;;;;8.10;7.30;;;22.80;99.90;;;;;;4892717;29;20397;-92
2023/06/12 15:27:08;;;;;;;8.98;8.27;;;22.80;99.90;;;;;;4901211;29;20107;-92
2023/06/12 15:29:36;;;;;;;9.68;8.77;;;22.80;99.90;;;;;;4898640;29;20123;-93
2023/06/12 15:32:08;;;;;;;9.10;8.50;;;22.70;99.90;;;;;;4897204;29;20039;-90
2023/06/12 15:34:37;;;;;;;9.00;8.25;;;22.60;99.90;;;;;;4898888;29;20505;-93
2023/06/12 15:37:06;;;;;;;9.00;8.30;;;22.60;99.90;;;;;;4902377;29;20454;-92
2023/06/12 15:39:36;;;;;;;9.45;8.50;;;22.60;99.90;;;;;;4888161;29;20035;-92
2023/06/12 15:42:03;;;;;;;8.85;8.25;;;22.60;99.90;;;;;;4882782;29;20040;-92
2023/06/12 15:44:29;;;;;;;8.88;8.13;;;22.60;99.90;;;;;;4886156;29;20037;-93
2023/06/12 15:46:56;;;;;;;8.82;7.97;;;22.70;99.90;;;;;;4904788;29;20028;-94
2023/06/12 15:49:25;;;;;;;8.80;8.20;;;22.60;99.90;;;;;;4905466;29;20032;-94
2023/06/12 15:51:51;;;;;;;9.05;8.35;;;22.60;99.90;;;;;;4905593;29;20024;-94
2023/06/12 15:54:18;;;;;;;9.30;8.50;;;22.60;99.90;;;;;;4905672;29;20047;-91
2023/06/12 15:56:44;;;;;;;8.90;8.30;;;22.70;99.90;;;;;;4905574;29;20035;-93
2023/06/12 15:59:10;;;;;;;9.40;8.73;;;22.90;99.90;;;;;;4904996;29;20032;-91
2023/06/12 16:01:38;;;;;;;8.77;8.20;;;23.00;99.90;;;;;;4904979;29;20032;-94
2023/06/12 16:04:10;;;;;;;9.27;8.68;;;23.30;99.90;;;;;;4901525;29;20056;-92
2023/06/12 16:06:37;;;;;;;9.52;8.93;;;23.60;99.90;;;;;;4901549;29;20028;-94
2023/06/12 16:09:05;;;;;;;10.80;10.10;;;23.90;99.90;;;;;;4901628;29;20065;-95
2023/06/12 16:11:32;;;;;;;11.02;10.43;;;24.10;99.90;;;;;;4909317;29;20088;-92
2023/06/12 16:13:58;;;;;;;12.10;11.35;;;24.30;99.90;;;;;;4917240;29;20055;-92
2023/06/12 16:16:33;;;;;;;13.00;12.20;;;24.40;99.90;;;;;;4904690;29;20043;-93
2023/06/12 16:37:12;;;;;;;12.60;11.70;;;24.60;99.90;;;;;;4909865;29;20045;-95
2023/06/12 16:39:40;;;;;;;12.10;11.30;;;24.70;99.90;;;;;;4892606;29;20044;-93
2023/06/12 16:42:08;;;;;;;12.32;11.40;;;24.60;99.90;;;;;;4881901;29;20037;-93
2023/06/12 16:44:35;;;;;;;11.98;11.27;;;24.50;99.90;;;;;;4885711;29;20028;-93
2023/06/12 16:47:06;;;;;;;12.32;11.52;;;24.40;99.90;;;;;;4887347;29;20573;-95
2023/06/12 16:49:33;;;;;;;11.40;10.70;;;24.30;99.90;;;;;;4885582;29;20036;-93
2023/06/12 16:51:59;;;;;;;12.85;12.00;;;24.30;99.90;;;;;;4869773;29;20084;-94
2023/06/12 16:54:26;;;;;;;12.52;11.63;;;24.10;99.90;;;;;;4870555;29;20045;-93
2023/06/12 16:56:53;;;;;;;12.25;11.45;;;24.10;99.90;;;;;;4870411;29;20112;-93
2023/06/12 16:59:19;;;;;;;12.20;11.40;;;24.00;99.90;;;;;;4869158;29;20033;-93
2023/06/12 17:01:45;;;;;;;11.63;10.90;;;23.90;99.90;;;;;;4884790;29;20052;-92
2023/06/12 17:04:12;;;;;;;11.65;10.85;;;23.90;99.90;;;;;;4869019;29;20037;-91
2023/06/12 17:06:38;;;;;;;11.32;10.52;;;23.80;99.90;;;;;;4869562;29;20025;-91
2023/06/12 17:09:07;;;;;;;10.45;9.88;;;23.70;99.90;;;;;;4869373;29;20043;-90
2023/06/12 17:11:33;;;;;;;11.45;10.57;;;23.70;99.90;;;;;;4881717;29;20475;-92
2023/06/12 17:14:03;;;;;;;11.38;10.60;;;23.70;99.90;;;;;;4865756;29;20041;-92
2023/06/12 17:16:29;;;;;;;11.50;10.52;;;23.80;99.90;;;;;;4866135;29;20033;-92
2023/06/12 17:18:56;;;;;;;11.45;10.73;;;23.80;99.90;;;;;;4866248;29;20037;-92
2023/06/12 17:21:22;;;;;;;11.27;10.57;;;23.80;99.90;;;;;;4850633;29;20123;-94
2023/06/12 17:23:51;;;;;;;11.40;10.70;;;23.80;99.90;;;;;;4882552;29;20044;-94
2023/06/12 17:26:18;;;;;;;10.45;9.80;;;23.80;99.90;;;;;;4884584;29;20060;-92
2023/06/12 17:28:45;;;;;;;11.27;10.43;;;23.80;99.90;;;;;;4871570;29;20120;-92
2023/06/12 17:31:11;;;;;;;10.70;10.00;;;23.70;99.90;;;;;;4875048;29;20044;-91
2023/06/12 17:33:40;;;;;;;10.70;10.00;;;23.50;99.90;;;;;;4893996;29;20037;-91
2023/06/12 17:36:06;;;;;;;10.48;9.75;;;23.40;99.90;;;;;;4894367;29;20120;-91
2023/06/12 17:38:47;;;;;;;8.93;8.32;;;23.30;99.90;;;;;;4899535;29;20040;-91
2023/06/12 17:41:30;;;;;;;10.70;8.32;;;23.10;99.90;;;;;;4899201;29;20161;-93
2023/06/12 17:44:01;;;;;;;8.70;7.90;;;23.00;99.90;;;;;;4900469;29;20486;-94
2023/06/12 17:50:15;;;;;;;8.13;7.47;;;22.50;99.90;;;;;;4881174;29;20061;-92
2023/06/12 17:52:41;;;;;;;8.55;7.70;;;22.30;99.90;;;;;;4883263;29;20029;-92
2023/06/12 17:55:09;;;;;;;7.55;7.05;;;22.20;99.90;;;;;;4868467;29;20036;-94
2023/06/12 17:57:36;;;;;;;12.93;7.60;;;22.00;99.90;;;;;;4868453;29;20067;-94
2023/06/12 18:00:03;;;;;;;8.27;7.60;;;22.00;99.90;;;;;;4868555;29;20490;-91
2023/06/12 18:02:30;;;;;;;12.80;7.78;;;21.90;99.90;;;;;;4889941;29;20045;-93
2023/06/12 18:04:57;;;;;;;7.97;7.43;;;21.90;99.90;;;;;;4899262;29;20020;-94
2023/06/12 18:07:23;;;;;;;7.68;7.07;;;21.80;99.90;;;;;;4888592;29;20084;-93
2023/06/12 18:09:49;;;;;;;7.60;7.00;;;21.70;99.90;;;;;;4884024;29;20112;-93
2023/06/12 18:12:17;;;;;;;10.82;7.60;;;21.70;99.90;;;;;;4884032;29;20032;-93
2023/06/12 18:14:44;;;;;;;7.05;6.45;;;21.70;99.90;;;;;;4896355;29;20033;-92
2023/06/12 18:17:13;;;;;;;7.15;6.55;;;21.70;99.90;;;;;;4881516;29;20040;-92
2023/06/12 18:19:40;;;;;;;7.68;6.93;;;21.70;99.90;;;;;;4896220;29;20039;-90
2023/06/12 18:22:06;;;;;;;7.10;6.50;;;21.70;99.90;;;;;;4884012;29;20037;-93
2023/06/12 18:24:33;;;;;;;7.15;6.53;;;21.70;99.90;;;;;;4899223;29;20061;-92
2023/06/12 18:27:00;;;;;;;7.38;6.65;;;21.70;99.90;;;;;;4883456;29;20071;-91
2023/06/12 18:29:26;;;;;;;12.55;6.22;;;21.70;99.90;;;;;;4899567;29;20040;-92
2023/06/12 18:31:53;;;;;;;7.40;6.78;;;21.60;99.90;;;;;;4883494;29;20029;-94
2023/06/12 18:34:20;;;;;;;9.10;6.82;;;21.60;99.90;;;;;;4885817;29;20055;-92
2023/06/12 18:36:46;;;;;;;7.53;6.63;;;21.50;99.90;;;;;;4886409;29;20095;-94
2023/06/12 18:39:15;;;;;;;7.93;6.40;;;21.50;99.90;;;;;;4886444;29;20447;-92
2023/06/12 18:41:42;;;;;;;8.77;6.65;;;21.40;99.90;;;;;;4902031;29;20035;-92
2023/06/12 18:44:12;;;;;;;7.65;6.70;;;21.40;99.90;;;;;;4877962;29;20032;-95
2023/06/12 18:46:39;;;;;;;6.95;6.38;;;21.40;99.90;;;;;;4902434;29;20028;-93
2023/06/12 18:49:06;;;;;;;10.02;6.22;;;21.40;99.90;;;;;;4885958;29;20028;-92
2023/06/12 18:51:53;;;;;;;8.25;6.68;;;21.40;99.90;;;;;;4883031;29;20025;-92
2023/06/12 23:36:30;;;;;;;17.13;9.25;;;19.60;99.90;;;;;;5527302;23;20122;-92
2023/06/12 23:38:56;;;;;;;21.25;10.77;;;19.50;99.90;;;;;;4924707;29;20105;-93
2023/06/12 23:41:25;;;;;;;19.67;9.73;;;19.60;99.90;;;;;;4922636;29;20486;-92
2023/06/12 23:43:51;;;;;;;16.95;9.48;;;19.50;99.90;;;;;;4938829;29;20036;-93
2023/06/12 23:46:18;;;;;;;13.60;9.25;;;19.50;99.90;;;;;;4944849;28;20030;-90
2023/06/12 23:48:45;;;;;;;20.10;10.02;;;19.50;99.90;;;;;;4942176;28;20161;-92
2023/06/12 23:51:12;;;;;;;20.67;10.70;;;19.40;99.90;;;;;;4942220;28;20027;-91
2023/06/12 23:53:39;;;;;;;17.67;10.93;;;19.40;99.90;;;;;;4958156;28;20039;-92
2023/06/12 23:56:05;;;;;;;20.85;11.02;;;19.40;99.90;;;;;;4942116;28;20034;-92
2023/06/12 23:58:33;;;;;;;20.10;11.80;;;19.40;99.90;;;;;;4945722;28;20074;-91
